Latest Weather Observations for Groote Eylandt Airport

IDD60801

Issued at 9:31 pm CST Thursday 5 March 2015 (issued every 30 minutes, with the page automatically refreshed every 10 minutes)

About weather observations | Map of weather stations | Latest weather observations for NT | Other Formats
Station Details ID: 014518 Name: GROOTE EYLANDT AIRPORT Lat: -13.97 Lon: 136.46 Height: 13.7 m
Data from the previous 72 hours. | See also: Recent months at Groote Eylandt Airport
Date/Time
CST
Temp
°C
App
Temp
°C
Dew
Point
Rel
Hum
%
Delta-T
°C
Wind Press
QNH
hPa
Press
MSL
hPa
Rain
since 9 am
mm
Dir
 
Spd
km/h
Gust
km/h
Spd
kts
Gust
kts
05/09:30pm 27.9 31.7 22.8 74 3.5 ENE 7 9 4 5 1008.4 1008.3 0.0
05/09:00pm 28.2 32.1 22.9 73 3.6 ENE 7 11 4 6 1008.0 1007.9 0.0
05/08:30pm 28.8 32.7 23.0 71 4.0 ENE 7 9 4 5 1007.4 1007.3 0.0
05/08:00pm 29.2 32.9 23.2 70 4.1 E 9 11 5 6 1006.9 1006.8 0.0
05/07:30pm 29.7 32.2 23.2 68 4.5 ENE 15 19 8 10 1006.6 1006.5 0.0
05/07:00pm 30.2 34.4 24.1 70 4.2 SE 9 15 5 8 1006.1 1006.0 0.0
05/06:30pm 30.9 35.7 24.1 67 4.7 SSW 6 15 3 8 1005.7 1005.6 0.0
05/06:00pm 31.5 35.6 23.9 64 5.3 S 9 17 5 9 1005.4 1005.3 0.0
05/05:30pm 32.3 36.4 24.6 64 5.4 SW 11 20 6 11 1005.3 1005.2 0.0
05/05:00pm 32.5 36.9 25.6 67 4.9 WSW 13 17 7 9 1005.5 1005.4 0.0
05/04:30pm 32.1 36.6 25.2 67 4.9 SW 11 17 6 9 1005.5 1005.4 0.0
05/04:00pm 33.0 38.4 26.0 66 5.0 W 9 17 5 9 1005.6 1005.5 0.0
05/03:30pm 32.3 37.2 25.9 69 4.6 WSW 11 17 6 9 1005.9 1005.8 0.0
05/03:00pm 31.1 35.2 25.2 71 4.2 W 13 17 7 9 1006.2 1006.1 0.0
05/02:30pm 29.6 32.4 25.3 77 3.0 NW 20 30 11 16 1006.6 1006.5 0.0
05/02:00pm 29.7 33.1 24.1 72 3.9 NNW 13 19 7 10 1006.9 1006.8 0.0
05/01:30pm 32.4 37.5 26.7 72 4.1 SW 13 19 7 10 1007.0 1006.9 0.0
05/01:00pm 30.9 35.7 25.7 74 3.7 WSW 11 17 6 9 1007.8 1007.7 0.0
05/12:30pm 30.9 35.1 25.3 72 4.0 W 13 19 7 10 1008.2 1008.1 0.0
05/12:00pm 31.8 35.9 25.2 68 4.7 W 13 17 7 9 1008.6 1008.5 0.0
05/11:30am 31.4 35.5 24.0 65 5.2 WSW 9 15 5 8 1009.0 1008.9 0.0
05/11:00am 31.1 35.9 24.5 68 4.6 WSW 7 11 4 6 1009.2 1009.1 0.0
05/10:30am 31.6 35.9 25.5 70 4.3 WNW 13 19 7 10 1009.5 1009.4 0.0
05/10:00am 31.7 37.7 26.3 73 3.9 NW 7 15 4 8 1009.6 1009.5 0.0
05/09:30am 30.9 37.1 26.6 78 3.1 NNW 7 11 4 6 1009.9 1009.8 0.0
05/09:00am 30.5 37.1 26.9 81 2.6 NE 6 9 3 5 1010.0 1009.9 0.2
05/08:30am 29.6 35.4 26.6 84 2.1 ENE 9 11 5 6 1009.8 1009.7 0.2
05/08:00am 28.3 34.3 26.3 89 1.4 E 7 11 4 6 1009.7 1009.6 0.2
05/07:30am 26.4 31.8 25.4 94 0.7 SE 7 11 4 6 1009.2 1009.1 0.2
05/07:00am 24.7 29.2 24.0 96 0.5 ESE 7 9 4 5 1008.9 1008.8 0.2
05/06:30am 23.3 27.0 22.5 95 0.5 ESE 7 11 4 6 1008.3 1008.2 0.2
05/06:00am 23.3 27.8 22.3 94 0.7 ESE 2 7 1 4 1007.6 1007.5 0.2
05/05:30am 23.4 27.2 22.4 94 0.7 E 6 7 3 4 1007.0 1006.9 0.2
05/05:00am 23.1 26.4 21.9 93 0.8 E 7 9 4 5 1007.0 1006.9 0.2
05/04:30am 23.2 27.8 21.8 92 0.9 CALM 0 0 0 0 1006.9 1006.8 0.2
05/04:00am 23.3 28.0 21.9 92 0.9 CALM 0 0 0 0 1006.7 1006.6 0.2
05/03:40am 23.4 28.1 22.0 92 0.9 CALM 0 0 0 0 1006.9 1006.8 0.2
05/03:30am 23.4 28.0 21.8 91 1.1 CALM 0 0 0 0 1006.9 1006.8 0.0
05/03:20am 23.6 28.3 22.0 91 1.1 CALM 0 0 0 0 1007.0 1006.9 0.0
05/03:19am 23.5 28.2 21.9 91 1.1 CALM 0 0 0 0 1007.0 1006.9 0.0
05/03:00am 23.9 28.7 22.2 90 1.1 CALM 0 0 0 0 1007.0 1006.9 0.0
05/02:59am 23.9 28.7 22.2 90 1.1 CALM 0 0 0 0 1007.0 1006.9 0.0
05/02:30am 24.2 29.3 22.6 91 1.1 CALM 0 0 0 0 1007.4 1007.3 0.0
05/02:22am 24.2 29.2 22.5 90 1.1 CALM 0 0 0 0 1007.5 1007.4 0.0
05/02:03am 24.2 29.2 22.5 90 1.1 CALM 0 0 0 0 1007.8 1007.7 0.0
05/02:00am 24.2 29.2 22.5 90 1.1 CALM 0 0 0 0 1007.8 1007.7 0.0
05/01:30am 24.5 29.2 22.6 89 1.3 E 2 6 1 3 1008.1 1008.0 0.0
05/01:16am 24.9 29.0 23.0 89 1.3 ENE 6 7 3 4 1008.2 1008.1 0.0
05/01:03am 24.9 30.1 22.8 88 1.4 CALM 0 0 0 0 1008.4 1008.3 0.0
05/01:00am 24.9 30.1 22.8 88 1.4 CALM 0 0 0 0 1008.5 1008.4 0.0
05/12:30am 25.4 30.1 23.3 88 1.4 ENE 4 6 2 3 1008.9 1008.8 0.0
05/12:00am 25.6 31.2 23.5 88 1.4 CALM 0 0 0 0 1009.3 1009.2 0.0
 
Date/Time
CST
Temp
°C
App
Temp
°C
Dew
Point
Rel
Hum
%
Delta-T
°C
Wind Press
QNH
hPa
Press
MSL
hPa
Rain
since 9 am
mm
Dir
 
Spd
km/h
Gust
km/h
Spd
kts
Gust
kts
04/11:45pm 25.4 30.7 23.1 87 1.6 CALM 0 0 0 0 1009.4 1009.3 0.0
04/11:31pm 25.7 31.2 23.4 87 1.6 CALM 0 0 0 0 1009.5 1009.4 0.0
04/11:30pm 25.7 31.2 23.4 87 1.6 CALM 0 0 0 0 1009.5 1009.4 0.0
04/11:23pm 26.1 31.8 23.8 87 1.6 CALM 0 0 0 0 1009.5 1009.4 0.0
04/11:04pm 26.0 31.6 23.5 86 1.7 CALM 0 0 0 0 1009.5 1009.4 0.0
04/11:00pm 26.0 31.6 23.5 86 1.7 CALM 0 0 0 0 1009.5 1009.4 0.0
04/10:30pm 27.0 32.9 24.1 84 2.0 CALM 0 0 0 0 1009.4 1009.3 0.0
04/10:07pm 27.1 31.8 24.0 83 2.1 ENE 6 7 3 4 1009.4 1009.3 0.0
04/10:00pm 27.1 32.3 24.2 84 2.0 ENE 4 7 2 4 1009.3 1009.2 0.0
04/09:30pm 27.0 32.9 24.1 84 2.0 CALM 0 0 0 0 1009.1 1009.0 0.0
04/09:00pm 27.6 33.7 24.4 83 2.2 CALM 0 0 0 0 1008.7 1008.6 0.0
04/08:43pm 28.1 34.4 24.7 82 2.4 CALM 0 6 0 3 1008.8 1008.7 0.0
04/08:31pm 28.1 33.2 24.7 82 2.4 NE 6 7 3 4 1008.6 1008.5 0.0
04/08:30pm 28.2 33.4 24.8 82 2.4 NE 6 7 3 4 1008.6 1008.5 0.0
04/08:17pm 28.5 33.7 25.1 82 2.4 ENE 7 9 4 5 1008.4 1008.3 0.0
04/08:00pm 28.3 34.7 24.9 82 2.4 CALM 0 0 0 0 1008.3 1008.2 0.0
04/07:46pm 28.5 35.0 25.1 82 2.4 CALM 0 0 0 0 1008.1 1008.0 0.0
04/07:33pm 28.7 35.2 25.1 81 2.5 CALM 0 0 0 0 1007.9 1007.8 0.0
04/07:30pm 28.8 35.4 25.2 81 2.5 CALM 0 0 0 0 1007.8 1007.7 0.0
04/07:00pm 29.5 35.1 25.5 79 2.8 NNE 6 7 3 4 1007.4 1007.3 0.0
04/06:30pm 29.9 35.3 25.4 77 3.2 N 7 9 4 5 1007.0 1006.9 0.0
04/06:00pm 30.1 35.4 25.2 75 3.5 N 7 9 4 5 1006.9 1006.8 0.0
04/05:30pm 30.1 35.1 25.4 76 3.3 WNW 9 13 5 7 1006.8 1006.7 0.0
04/05:00pm 31.1 36.0 25.2 71 4.2 WNW 9 15 5 8 1006.7 1006.6 0.0
04/04:30pm 31.3 36.0 25.6 71 4.1 WSW 11 17 6 9 1006.7 1006.6 0.0
04/04:00pm 31.6 37.1 26.2 73 3.9 SW 9 15 5 8 1006.4 1006.3 0.0
04/03:30pm 31.3 36.1 26.3 75 3.6 WSW 13 20 7 11 1006.5 1006.4 0.0
04/03:00pm 32.0 37.9 26.8 74 3.8 WSW 9 13 5 7 1006.7 1006.6 0.0
04/02:30pm 32.0 37.9 26.8 74 3.8 WSW 9 15 5 8 1006.9 1006.8 0.0
04/02:00pm 32.8 38.1 26.4 69 4.6 W 11 22 6 12 1007.1 1007.0 0.0
04/01:30pm 34.9 39.9 26.5 61 6.1 ENE 13 20 7 11 1007.3 1007.2 0.0
04/01:00pm 34.6 39.9 27.0 64 5.5 ESE 13 20 7 11 1008.0 1007.9 0.0
04/12:30pm 33.6 39.0 26.6 67 5.1 NE 11 17 6 9 1008.3 1008.2 0.0
04/12:00pm 32.2 36.5 24.3 63 5.5 ESE 9 13 5 7 1008.8 1008.7 0.0
04/11:30am 32.0 35.9 24.8 65 5.1 NE 13 20 7 11 1009.2 1009.1 0.0
04/11:00am 30.5 31.7 23.2 65 5.0 NNE 22 32 12 17 1009.5 1009.4 0.0
04/10:30am 32.9 35.9 24.6 61 5.8 ENE 17 28 9 15 1009.7 1009.6 0.0
04/10:00am 31.9 34.9 25.2 67 4.7 E 19 26 10 14 1009.8 1009.7 0.0
04/09:30am 30.8 34.4 25.6 74 3.7 NE 17 24 9 13 1010.1 1010.0 0.0
04/09:00am 30.5 34.5 26.2 78 3.1 E 17 20 9 11 1010.0 1009.9 0.0
04/08:30am 29.5 34.3 26.3 83 2.3 ENE 13 17 7 9 1009.5 1009.4 0.0
04/08:00am 28.1 35.3 26.1 89 1.4 CALM 0 6 0 3 1009.0 1008.9 0.0
04/07:30am 25.9 32.2 24.7 93 0.8 CALM 0 0 0 0 1008.7 1008.6 0.0
04/07:00am 24.5 29.4 23.6 95 0.6 ENE 4 7 2 4 1008.1 1008.0 0.0
04/06:30am 23.9 29.2 23.0 95 0.6 CALM 0 0 0 0 1007.7 1007.6 0.0
04/06:00am 23.9 29.1 22.9 94 0.7 CALM 0 0 0 0 1007.8 1007.7 0.0
04/05:30am 24.2 29.6 23.2 94 0.7 CALM 0 0 0 0 1007.7 1007.6 0.0
04/05:00am 24.1 29.3 22.9 93 0.8 CALM 0 0 0 0 1007.3 1007.2 0.0
04/04:30am 24.7 30.3 23.5 93 0.8 CALM 0 0 0 0 1006.9 1006.8 0.0
04/04:00am 24.6 30.0 23.2 92 0.9 CALM 0 0 0 0 1006.6 1006.5 0.0
04/03:30am 25.4 30.9 24.0 92 1.0 NNE 2 6 1 3 1006.7 1006.6 0.0
04/03:00am 25.5 31.3 23.9 91 1.1 CALM 0 0 0 0 1006.6 1006.5 0.0
04/02:30am 25.3 31.0 23.7 91 1.1 CALM 0 0 0 0 1007.1 1007.0 0.0
04/02:00am 25.3 31.0 23.7 91 1.1 CALM 0 6 0 3 1007.2 1007.1 0.0
04/01:30am 25.3 29.7 23.4 89 1.3 E 6 9 3 5 1007.4 1007.3 0.0
04/01:00am 25.5 30.0 23.6 89 1.3 E 6 7 3 4 1007.9 1007.8 0.0
04/12:30am 25.8 31.5 23.7 88 1.4 CALM 0 0 0 0 1008.5 1008.4 0.0
04/12:00am 26.0 31.7 23.7 87 1.6 CALM 0 0 0 0 1008.6 1008.5 0.0
 
Date/Time
CST
Temp
°C
App
Temp
°C
Dew
Point
Rel
Hum
%
Delta-T
°C
Wind Press
QNH
hPa
Press
MSL
hPa
Rain
since 9 am
mm
Dir
 
Spd
km/h
Gust
km/h
Spd
kts
Gust
kts
03/11:30pm 26.6 32.5 24.1 86 1.7 CALM 0 0 0 0 1008.8 1008.7 0.0
03/11:00pm 26.4 32.1 23.7 85 1.9 CALM 0 0 0 0 1008.7 1008.6 0.0
03/10:30pm 27.1 32.9 24.0 83 2.1 CALM 0 4 0 2 1008.7 1008.6 0.0
03/10:00pm 27.1 31.8 24.0 83 2.1 E 6 7 3 4 1008.6 1008.5 0.0
03/09:30pm 27.3 31.8 23.7 81 2.5 E 6 7 3 4 1008.4 1008.3 0.0
03/09:00pm 27.4 31.9 23.6 80 2.6 ESE 6 7 3 4 1008.0 1007.9 0.0
03/08:30pm 28.0 32.3 23.6 77 3.0 E 7 9 4 5 1007.6 1007.5 0.0
03/08:00pm 28.9 33.3 23.8 74 3.5 ENE 7 9 4 5 1007.5 1007.4 0.0
03/07:30pm 29.2 33.1 23.6 72 3.9 ENE 9 13 5 7 1007.2 1007.1 0.0
03/07:00pm 29.6 32.6 23.3 69 4.3 ENE 13 17 7 9 1006.7 1006.6 0.0
03/06:30pm 30.3 33.9 23.7 68 4.6 NE 11 15 6 8 1006.1 1006.0 0.0
03/06:00pm 30.8 33.5 23.5 65 5.1 NE 15 20 8 11 1005.8 1005.7 0.0
03/05:30pm 31.4 34.5 23.5 63 5.5 NE 13 20 7 11 1005.4 1005.3 0.0
03/05:00pm 31.9 34.4 23.2 60 6.0 NE 15 20 8 11 1005.4 1005.3 0.0
03/04:30pm 32.5 35.0 23.2 58 6.4 ENE 15 20 8 11 1005.6 1005.5 0.0
03/04:00pm 32.3 33.9 22.1 55 6.9 NE 17 24 9 13 1005.6 1005.5 0.0
03/03:30pm 32.9 33.8 22.0 52 7.4 ENE 20 30 11 16 1005.6 1005.5 0.0
03/03:00pm 33.3 35.9 23.9 58 6.6 NE 17 22 9 12 1005.6 1005.5 0.0
03/02:30pm 33.4 34.8 22.8 53 7.3 NE 20 30 11 16 1006.0 1005.9 0.0
03/02:00pm 33.3 34.6 23.3 55 6.9 NE 22 32 12 17 1006.4 1006.3 0.0
03/01:30pm 33.4 35.1 23.1 54 7.1 NE 19 28 10 15 1006.8 1006.7 0.0
03/01:00pm 33.2 34.4 23.2 55 6.9 NE 22 30 12 16 1007.1 1007.0 0.0
03/12:30pm 33.0 34.4 23.6 57 6.5 NE 22 32 12 17 1007.5 1007.4 0.0
03/12:00pm 32.6 34.7 23.8 59 6.1 NE 19 28 10 15 1007.9 1007.8 0.0
03/11:30am 32.7 34.5 24.2 61 6.0 NE 22 32 12 17 1008.1 1008.0 0.0
03/11:00am 31.8 34.3 24.7 66 5.0 NE 20 26 11 14 1008.3 1008.2 0.0
03/10:30am 31.4 33.9 25.3 70 4.3 ENE 22 30 12 16 1008.5 1008.4 0.0
03/10:00am 30.9 34.5 26.2 76 3.4 NE 19 26 10 14 1008.4 1008.3 0.0
03/09:30am 30.3 34.9 26.5 80 2.7 ENE 15 20 8 11 1008.2 1008.1 0.0
03/09:00am 29.6 33.6 26.2 82 2.4 NE 17 22 9 12 1007.7 1007.6 0.0
03/08:30am 29.0 34.9 26.2 85 2.0 NE 7 13 4 7 1007.6 1007.5 0.0
03/08:00am 27.8 32.5 25.6 88 1.6 ENE 11 15 6 8 1007.5 1007.4 0.0
03/07:30am 26.5 32.8 25.3 93 0.8 NE 2 9 1 5 1007.1 1007.0 0.0
03/07:00am 25.1 31.1 24.2 95 0.6 CALM 0 0 0 0 1006.9 1006.8 0.0
03/06:30am 25.1 30.6 24.1 94 0.7 ESE 2 6 1 3 1006.8 1006.7 0.0
03/06:00am 25.3 30.2 24.3 94 0.7 ESE 6 6 3 3 1006.6 1006.5 0.0
03/05:30am 25.1 29.8 23.9 93 0.8 SE 6 7 3 4 1006.2 1006.1 0.0
03/05:00am 24.9 29.2 23.7 93 0.8 SE 7 9 4 5 1005.8 1005.7 0.0
03/04:30am 25.0 30.6 23.6 92 1.0 CALM 0 0 0 0 1005.6 1005.5 0.0
03/04:00am 25.0 30.5 23.4 91 1.1 CALM 0 0 0 0 1005.4 1005.3 0.0
03/03:30am 25.4 30.0 23.8 91 1.1 ESE 6 6 3 3 1005.2 1005.1 0.0
03/03:00am 25.4 30.6 23.6 90 1.2 E 2 6 1 3 1005.3 1005.2 0.0
03/02:30am 25.5 31.1 23.6 89 1.3 CALM 0 0 0 0 1005.4 1005.3 0.0
03/02:00am 26.0 30.7 24.0 89 1.4 ENE 6 7 3 4 1005.6 1005.5 0.0
03/01:30am 25.9 30.5 23.8 88 1.4 E 6 7 3 4 1005.9 1005.8 0.0
03/01:00am 26.5 31.1 24.2 87 1.6 E 7 9 4 5 1005.9 1005.8 0.0
03/12:30am 26.7 31.3 24.2 86 1.7 ENE 7 11 4 6 1006.2 1006.1 0.0
03/12:00am 26.9 31.2 24.2 85 1.9 NE 9 11 5 6 1006.2 1006.1 0.0
 
Date/Time
CST
Temp
°C
App
Temp
°C
Dew
Point
Rel
Hum
%
Delta-T
°C
Wind Press
QNH
hPa
Press
MSL
hPa
Rain
since 9 am
mm
Dir
 
Spd
km/h
Gust
km/h
Spd
kts
Gust
kts
02/11:30pm 27.0 31.9 24.3 85 1.9 NE 6 7 3 4 1006.2 1006.1 0.0
02/11:00pm 27.2 31.9 24.3 84 2.0 ENE 7 7 4 4 1006.0 1005.9 0.0
02/10:30pm 27.3 32.2 24.4 84 2.0 E 6 9 3 5 1006.3 1006.2 0.0
02/10:00pm 27.1 31.8 24.0 83 2.1 ESE 6 9 3 5 1006.5 1006.4 0.0

Other Formats:

Comma delimited format used in spreadsheet applications
http://www.bom.gov.au/fwo/IDD60801/IDD60801.94153.axf

JavaScript Object Notation format (JSON) in row-major order
http://www.bom.gov.au/fwo/IDD60801/IDD60801.94153.json